createdAt,value
2018-04-11T00:00:42.373Z,6.83
2018-04-11T00:03:08.952Z,7.07
2018-04-11T00:05:35.625Z,6.63
2018-04-11T00:08:03.252Z,7.30
2018-04-11T00:10:29.808Z,9.47
2018-04-11T00:12:57.292Z,7.27
2018-04-11T00:15:24.348Z,7.17
2018-04-11T00:17:50.622Z,6.50
2018-04-11T00:20:16.845Z,6.33
2018-04-11T00:22:43.506Z,13.30
2018-04-11T00:25:09.917Z,6.80
2018-04-11T00:27:36.649Z,7.37
2018-04-11T00:30:04.134Z,6.43
2018-04-11T00:32:38.319Z,7.70
2018-04-11T00:35:04.836Z,7.10
2018-04-11T00:37:32.315Z,6.67
2018-04-11T00:40:00.081Z,6.70
2018-04-11T00:42:26.342Z,6.37
2018-04-11T00:44:53.282Z,6.40
2018-04-11T00:47:20.686Z,6.30
2018-04-11T00:49:47.846Z,6.27
2018-04-11T00:52:15.818Z,9.73
2018-04-11T00:54:42.016Z,9.93
2018-04-11T00:57:08.206Z,11.40
2018-04-11T00:59:35.736Z,10.10
2018-04-11T01:02:01.977Z,10.47
2018-04-11T01:04:28.176Z,9.53
2018-04-11T01:06:54.850Z,8.37
2018-04-11T01:09:21.791Z,10.37
2018-04-11T01:11:49.338Z,10.00
2018-04-11T01:14:16.580Z,12.90
2018-04-11T01:16:42.814Z,13.17
2018-04-11T01:19:10.047Z,13.60
2018-04-11T01:21:36.403Z,15.20
2018-04-11T01:24:03.906Z,13.60
2018-04-11T01:26:30.142Z,12.40
2018-04-11T01:28:56.351Z,16.52
2018-04-11T01:31:23.580Z,13.13
2018-04-11T01:33:50.830Z,11.77
2018-04-11T01:36:18.005Z,11.03
2018-04-11T01:38:46.286Z,13.63
2018-04-11T01:41:12.649Z,12.37
2018-04-11T01:43:39.137Z,13.50
2018-04-11T01:46:06.837Z,12.90
2018-04-11T01:48:33.018Z,13.97
2018-04-11T01:51:00.600Z,13.15
2018-04-11T01:53:27.170Z,11.02
2018-04-11T01:55:54.804Z,9.77
2018-04-11T01:58:21.528Z,12.63
2018-04-11T02:00:47.749Z,9.75
2018-04-11T02:03:14.693Z,10.20
2018-04-11T02:05:41.349Z,10.25
2018-04-11T02:08:09.470Z,12.83
2018-04-11T02:10:35.720Z,10.63
2018-04-11T02:13:02.907Z,12.13
2018-04-11T02:15:29.748Z,10.43
2018-04-11T02:17:56.005Z,11.23
2018-04-11T02:20:23.255Z,11.10
2018-04-11T02:22:49.457Z,13.82
2018-04-11T02:25:15.845Z,14.55
2018-04-11T02:27:43.220Z,13.20
2018-04-11T02:30:09.442Z,13.27
2018-04-11T02:32:35.930Z,11.40
2018-04-11T02:35:02.919Z,14.20
2018-04-11T02:37:29.868Z,14.35
2018-04-11T02:39:56.671Z,13.52
2018-04-11T02:42:22.877Z,13.25
2018-04-11T02:44:49.327Z,12.77
2018-04-11T02:47:16.597Z,9.90
2018-04-11T02:49:43.541Z,16.87
2018-04-11T02:52:10.395Z,13.32
2018-04-11T02:54:37.376Z,10.57
2018-04-11T02:57:04.968Z,10.45
2018-04-11T02:59:32.079Z,10.95
2018-04-11T03:01:59.832Z,9.70
2018-04-11T03:04:26.053Z,8.93
2018-04-11T03:06:52.807Z,9.55
2018-04-11T03:09:19.597Z,9.07
2018-04-11T03:11:45.898Z,10.85
2018-04-11T03:14:12.092Z,9.32
2018-04-11T03:16:39.206Z,8.90
2018-04-11T03:19:06.417Z,10.20
2018-04-11T03:21:32.605Z,9.18
2018-04-11T03:24:00.752Z,9.20
2018-04-11T03:26:28.074Z,8.70
2018-04-11T03:28:55.100Z,8.48
2018-04-11T03:31:21.325Z,9.05
2018-04-11T03:33:49.074Z,7.95
2018-04-11T03:36:16.166Z,7.40
2018-04-11T03:38:43.140Z,7.30
2018-04-11T03:41:09.364Z,7.22
2018-04-11T03:43:35.555Z,9.60
2018-04-11T03:46:01.784Z,10.88
2018-04-11T03:48:28.012Z,9.35
2018-04-11T03:50:54.282Z,7.15
2018-04-11T03:53:20.468Z,8.05
2018-04-11T03:55:47.504Z,8.43
2018-04-11T03:58:14.245Z,8.10
2018-04-11T04:00:41.313Z,9.10
2018-04-11T04:03:08.311Z,9.55
2018-04-11T04:05:36.026Z,8.32
2018-04-11T04:08:02.295Z,9.82
2018-04-11T04:10:29.746Z,9.80
2018-04-11T04:12:56.658Z,9.85
2018-04-11T04:15:35.919Z,12.13
2018-04-11T04:18:14.613Z,10.90
2018-04-11T04:20:41.594Z,9.65
2018-04-11T04:23:08.516Z,9.45
2018-04-11T04:25:34.761Z,10.15
2018-04-11T04:28:01.554Z,9.50
2018-04-11T04:30:27.770Z,8.00
2018-04-11T04:32:54.006Z,9.88
2018-04-11T04:35:20.318Z,9.55
2018-04-11T04:37:46.494Z,9.18
2018-04-11T04:40:13.415Z,8.95
2018-04-11T04:42:39.992Z,11.68
2018-04-11T04:45:06.212Z,11.05
2018-04-11T04:47:32.991Z,10.30
2018-04-11T04:49:59.737Z,13.35
2018-04-11T04:52:25.961Z,13.15
2018-04-11T04:54:53.192Z,16.90
2018-04-11T04:57:20.113Z,14.68
2018-04-11T04:59:46.962Z,18.33
2018-04-11T05:02:13.595Z,14.70
2018-04-11T05:04:39.938Z,15.30
2018-04-11T05:07:08.002Z,14.77
2018-04-11T05:09:34.784Z,15.57
2018-04-11T05:12:01.807Z,18.00
2018-04-11T05:14:28.701Z,15.18
2018-04-11T05:16:55.653Z,16.87
2018-04-11T05:19:22.388Z,17.23
2018-04-11T05:21:48.592Z,17.50
2018-04-11T05:24:15.726Z,17.00
2018-04-11T05:26:43.731Z,21.77
2018-04-11T05:29:10.871Z,22.30
2018-04-11T05:31:37.988Z,19.52
2018-04-11T05:34:04.267Z,17.67
2018-04-11T05:36:30.469Z,21.95
2018-04-11T05:38:57.274Z,19.48
2018-04-11T05:41:24.614Z,18.23
2018-04-11T05:43:51.692Z,18.23
2018-04-11T05:46:17.978Z,18.83
2018-04-11T05:48:44.336Z,16.83
2018-04-11T05:51:11.332Z,16.98
2018-04-11T05:53:38.604Z,14.70
2018-04-11T05:56:04.958Z,17.10
2018-04-11T05:58:31.913Z,17.02
2018-04-11T06:00:59.690Z,15.85
2018-04-11T06:03:26.724Z,17.05
2018-04-11T06:05:53.735Z,15.00
2018-04-11T06:08:21.581Z,13.80
2018-04-11T06:10:47.806Z,14.65
2018-04-11T06:13:14.569Z,12.90
2018-04-11T06:15:41.128Z,13.90
2018-04-11T06:18:08.283Z,15.13
2018-04-11T06:20:35.684Z,19.10
2018-04-11T06:23:02.749Z,17.08
2018-04-11T06:25:29.167Z,11.70
2018-04-11T06:27:56.622Z,14.25
2018-04-11T06:30:22.992Z,14.52
2018-04-11T06:32:50.191Z,12.27
2018-04-11T06:35:16.895Z,13.05
2018-04-11T06:37:43.856Z,16.60
2018-04-11T06:40:10.684Z,12.32
2018-04-11T06:42:36.913Z,13.62
2018-04-11T06:45:04.133Z,15.43
2018-04-11T06:47:31.979Z,17.12
2018-04-11T06:50:00.153Z,15.07
2018-04-11T06:52:27.136Z,16.77
2018-04-11T06:54:54.213Z,13.77
2018-04-11T06:57:20.980Z,13.60
2018-04-11T06:59:47.322Z,15.60
2018-04-11T07:02:14.089Z,15.73
2018-04-11T07:04:40.474Z,15.60
2018-04-11T07:07:07.992Z,14.50
2018-04-11T07:09:35.999Z,15.23
2018-04-11T07:12:02.593Z,12.80
2018-04-11T07:14:30.161Z,15.03
2018-04-11T07:16:57.643Z,16.93
2018-04-11T07:19:24.036Z,14.20
2018-04-11T07:21:50.993Z,14.83
2018-04-11T07:24:18.053Z,17.30
2018-04-11T07:26:44.237Z,13.07
2018-04-11T07:29:10.882Z,14.47
2018-04-11T07:31:37.869Z,13.27
2018-04-11T07:34:04.692Z,13.60
2018-04-11T07:36:31.034Z,16.43
2018-04-11T07:38:57.253Z,16.10
2018-04-11T07:41:24.867Z,16.70
2018-04-11T07:43:51.685Z,14.97
2018-04-11T07:46:17.966Z,14.97
2018-04-11T07:48:45.679Z,15.17
2018-04-11T07:51:12.092Z,15.83
2018-04-11T07:53:39.261Z,16.00
2018-04-11T07:56:06.895Z,14.13
2018-04-11T07:58:33.156Z,18.33
2018-04-11T08:00:59.519Z,13.60
2018-04-11T08:03:26.542Z,18.23
2018-04-11T08:05:52.824Z,15.87
2018-04-11T08:08:19.815Z,16.17
2018-04-11T08:10:46.346Z,16.53
2018-04-11T08:13:13.333Z,14.47
2018-04-11T08:15:40.523Z,16.70
2018-04-11T08:18:06.950Z,14.67
2018-04-11T08:20:33.171Z,16.37
2018-04-11T08:22:59.747Z,17.47
2018-04-11T08:25:26.027Z,14.87
2018-04-11T08:27:53.423Z,15.73
2018-04-11T08:30:20.453Z,18.20
2018-04-11T08:32:46.859Z,14.97
2018-04-11T08:35:14.328Z,18.60
2018-04-11T08:37:41.276Z,18.50
2018-04-11T08:40:08.564Z,18.73
2018-04-11T08:42:35.974Z,18.07
2018-04-11T08:45:02.933Z,18.17
2018-04-11T08:47:29.118Z,18.00
2018-04-11T08:49:55.423Z,17.53
2018-04-11T08:52:22.037Z,18.87
2018-04-11T08:54:48.259Z,17.97
2018-04-11T08:57:14.493Z,17.17
2018-04-11T08:59:41.283Z,17.40
2018-04-11T09:02:08.274Z,18.20
2018-04-11T09:04:34.499Z,18.83
2018-04-11T09:07:01.405Z,19.70
2018-04-11T09:09:27.941Z,18.97
2018-04-11T09:11:55.432Z,17.20
2018-04-11T09:14:21.673Z,17.47
2018-04-11T09:16:48.111Z,17.73
2018-04-11T09:19:15.188Z,19.83
2018-04-11T09:21:42.041Z,18.10
2018-04-11T09:24:08.776Z,21.33
2018-04-11T09:26:34.996Z,17.77
2018-04-11T09:29:02.718Z,17.30
2018-04-11T09:31:29.433Z,19.37
2018-04-11T09:33:56.414Z,18.77
2018-04-11T09:36:22.617Z,19.37
2018-04-11T09:38:48.936Z,17.93
2018-04-11T09:41:15.897Z,21.40
2018-04-11T09:43:42.793Z,18.47
2018-04-11T09:46:09.579Z,20.60
2018-04-11T09:48:36.663Z,18.60
2018-04-11T09:51:04.015Z,18.93
2018-04-11T09:53:31.600Z,22.10
2018-04-11T09:55:58.122Z,17.77
2018-04-11T09:58:25.353Z,19.23
2018-04-11T10:00:53.465Z,19.10
2018-04-11T10:03:22.732Z,21.53
2018-04-11T10:05:49.777Z,18.53
2018-04-11T10:08:17.821Z,19.47
2018-04-11T10:10:44.404Z,19.60
2018-04-11T10:13:11.672Z,19.47
2018-04-11T10:15:38.953Z,18.03
2018-04-11T10:18:06.553Z,20.33
2018-04-11T10:20:33.597Z,20.20
2018-04-11T10:22:59.823Z,20.50
2018-04-11T10:25:27.004Z,19.77
2018-04-11T10:27:53.305Z,22.17
2018-04-11T10:30:20.540Z,20.37
2018-04-11T10:32:47.573Z,21.73
2018-04-11T10:35:14.307Z,19.33
2018-04-11T10:37:40.547Z,23.40
2018-04-11T10:40:07.053Z,20.67
2018-04-11T10:42:34.911Z,22.90
2018-04-11T10:45:02.029Z,22.00
2018-04-11T10:47:28.314Z,21.20
2018-04-11T10:49:54.706Z,18.73
2018-04-11T10:52:21.694Z,21.63
2018-04-11T10:54:48.131Z,20.50
2018-04-11T10:57:15.769Z,22.30
2018-04-11T10:59:42.740Z,23.23
2018-04-11T11:02:09.240Z,24.07
2018-04-11T11:04:36.312Z,23.27
2018-04-11T11:07:03.787Z,24.40
2018-04-11T11:09:30.068Z,22.70
2018-04-11T11:11:56.399Z,22.93
2018-04-11T11:14:23.265Z,22.20
2018-04-11T11:16:49.489Z,22.77
2018-04-11T11:19:16.738Z,22.23
2018-04-11T11:21:43.726Z,21.67
2018-04-11T11:24:10.469Z,23.33
2018-04-11T11:26:37.999Z,22.77
2018-04-11T11:29:05.015Z,25.67
2018-04-11T11:31:31.714Z,22.43
2018-04-11T11:33:58.013Z,23.47
2018-04-11T11:36:24.231Z,24.47
2018-04-11T11:38:51.385Z,27.43
2018-04-11T11:41:18.027Z,22.33
2018-04-11T11:43:45.253Z,21.40
2018-04-11T11:46:12.216Z,23.97
2018-04-11T11:48:39.633Z,22.93
2018-04-11T11:51:05.954Z,22.83
2018-04-11T11:53:32.329Z,20.73
2018-04-11T11:55:59.390Z,21.80
2018-04-11T11:58:26.039Z,23.43
2018-04-11T12:00:53.405Z,24.83
2018-04-11T12:03:20.821Z,21.57
2018-04-11T12:05:47.868Z,25.47
2018-04-11T12:08:15.378Z,25.90
2018-04-11T12:10:41.710Z,25.50
2018-04-11T12:13:08.982Z,22.23
2018-04-11T12:15:35.632Z,22.63
2018-04-11T12:18:02.633Z,20.70
2018-04-11T12:20:28.960Z,21.50
2018-04-11T12:22:56.966Z,21.50
2018-04-11T12:25:23.364Z,19.30
2018-04-11T12:27:50.383Z,17.70
2018-04-11T12:30:16.670Z,20.23
2018-04-11T12:32:42.880Z,19.37
2018-04-11T12:35:09.506Z,18.77
2018-04-11T12:37:36.881Z,14.50
2018-04-11T12:40:04.221Z,18.10
2018-04-11T12:42:30.459Z,20.70
2018-04-11T12:44:56.663Z,16.77
2018-04-11T12:47:23.536Z,14.23
2018-04-11T12:49:49.734Z,11.00
2018-04-11T12:52:16.481Z,12.70
2018-04-11T12:54:43.075Z,13.07
2018-04-11T12:57:10.082Z,12.73
2018-04-11T12:59:36.873Z,11.30
2018-04-11T13:02:03.616Z,13.27
2018-04-11T13:04:30.359Z,13.70
2018-04-11T13:06:56.679Z,14.80
2018-04-11T13:22:23.170Z,8.07
2018-04-11T13:24:50.150Z,8.20
2018-04-11T13:27:16.580Z,9.20
2018-04-11T13:29:44.676Z,6.30
2018-04-11T13:32:18.084Z,5.47
2018-04-11T13:34:44.470Z,5.13
2018-04-11T13:37:11.676Z,5.00
2018-04-11T13:39:37.884Z,4.80
2018-04-11T13:42:04.842Z,4.40
2018-04-11T13:44:32.512Z,4.87
2018-04-11T13:46:58.717Z,4.00
2018-04-11T13:49:25.043Z,3.47
2018-04-11T13:51:51.228Z,4.47
2018-04-11T13:54:18.571Z,6.13
2018-04-11T13:56:46.173Z,4.23
2018-04-11T13:59:12.671Z,4.80
2018-04-11T14:01:39.694Z,4.20
2018-04-11T14:04:06.335Z,5.00
2018-04-11T14:06:33.971Z,4.10
2018-04-11T14:09:00.711Z,4.57
2018-04-11T14:11:27.047Z,4.73
2018-04-11T14:13:54.154Z,3.97
2018-04-11T14:16:21.129Z,4.70
2018-04-11T14:18:48.260Z,4.70
2018-04-11T14:21:14.461Z,3.83
2018-04-11T14:23:41.699Z,3.17
2018-04-11T14:26:08.763Z,5.00
2018-04-11T14:28:35.806Z,2.53
2018-04-11T14:31:03.505Z,2.77
2018-04-11T14:33:30.401Z,3.03
2018-04-11T14:35:58.880Z,3.80
2018-04-11T14:38:26.419Z,2.90
2018-04-11T14:40:53.643Z,2.77
2018-04-11T14:43:20.408Z,5.30
2018-04-11T14:45:47.199Z,5.73
2018-04-11T14:48:14.374Z,4.90
2018-04-11T14:50:42.005Z,6.00
2018-04-11T14:53:09.568Z,5.70
2018-04-11T14:55:36.592Z,5.67
2018-04-11T14:58:02.825Z,5.80
2018-04-11T15:00:29.755Z,5.80
2018-04-11T15:02:55.940Z,4.87
2018-04-11T15:05:22.229Z,4.97
2018-04-11T15:07:49.288Z,4.43
2018-04-11T15:10:16.311Z,4.73
2018-04-11T15:12:43.199Z,4.90
2018-04-11T15:15:10.786Z,4.97
2018-04-11T15:17:37.263Z,4.70
2018-04-11T15:20:04.252Z,4.10
2018-04-11T15:22:31.705Z,3.70
2018-04-11T15:24:58.783Z,3.10
2018-04-11T15:27:25.838Z,4.23
2018-04-11T15:29:52.616Z,3.30
2018-04-11T15:32:19.376Z,3.07
2018-04-11T15:34:46.520Z,5.23
2018-04-11T15:37:12.713Z,3.90
2018-04-11T15:39:40.609Z,5.20
2018-04-11T15:42:06.870Z,5.50
2018-04-11T15:44:33.085Z,4.77
2018-04-11T15:46:59.279Z,5.10
2018-04-11T15:49:27.434Z,4.80
2018-04-11T15:51:55.499Z,4.57
2018-04-11T15:54:22.725Z,6.70
2018-04-11T15:56:50.961Z,4.03
2018-04-11T15:59:17.955Z,4.80
2018-04-11T16:01:44.614Z,4.40
2018-04-11T16:04:12.112Z,4.63
2018-04-11T16:06:38.405Z,4.07
2018-04-11T16:09:05.372Z,4.10
2018-04-11T16:11:31.547Z,3.47
2018-04-11T16:13:58.709Z,3.83
2018-04-11T16:16:25.969Z,4.70
2018-04-11T16:18:53.973Z,2.87
2018-04-11T16:21:20.973Z,3.40
2018-04-11T16:23:48.152Z,3.30
2018-04-11T16:26:14.961Z,3.20
2018-04-11T16:28:42.242Z,3.07
2018-04-11T16:31:09.454Z,3.30
2018-04-11T16:33:37.271Z,2.60
2018-04-11T16:36:04.893Z,2.90
2018-04-11T16:38:31.416Z,4.23
2018-04-11T16:40:57.630Z,2.97
2018-04-11T16:43:23.826Z,1.90
2018-04-11T16:45:50.054Z,2.33
2018-04-11T16:48:16.256Z,2.27
2018-04-11T16:50:43.732Z,2.27
2018-04-11T16:53:11.665Z,2.27
2018-04-11T16:55:38.301Z,2.07
2018-04-11T16:58:05.304Z,2.30
2018-04-11T17:00:31.498Z,2.67
2018-04-11T17:02:59.166Z,2.50
2018-04-11T17:05:26.745Z,2.17
2018-04-11T17:07:53.237Z,2.50
2018-04-11T17:10:19.641Z,2.07
2018-04-11T17:12:45.868Z,2.00
2018-04-11T17:15:12.127Z,1.90
2018-04-11T17:17:38.346Z,2.27
2018-04-11T17:20:04.609Z,2.00
2018-04-11T17:22:43.163Z,2.10
2018-04-11T17:25:21.741Z,2.07
2018-04-11T17:28:01.098Z,2.20
2018-04-11T17:30:39.953Z,1.90
2018-04-11T17:33:06.942Z,1.77
2018-04-11T17:35:34.216Z,3.17
2018-04-11T17:38:01.063Z,4.97
2018-04-11T17:40:27.318Z,3.80
2018-04-11T17:42:54.790Z,4.47
2018-04-11T17:45:21.559Z,4.10
2018-04-11T17:47:48.744Z,7.43
2018-04-11T17:50:16.394Z,3.40
2018-04-11T17:52:43.651Z,4.13
2018-04-11T17:55:10.907Z,10.07
2018-04-11T17:57:38.164Z,5.67
2018-04-11T18:00:04.531Z,4.03
2018-04-11T18:02:30.802Z,4.10
2018-04-11T18:04:57.100Z,3.43
2018-04-11T18:07:23.690Z,2.90
2018-04-11T18:09:51.310Z,2.70
2018-04-11T18:12:18.280Z,2.83
2018-04-11T18:14:44.478Z,2.60
2018-04-11T18:17:11.422Z,2.13
2018-04-11T18:19:38.981Z,2.00
2018-04-11T18:22:05.962Z,2.30
2018-04-11T18:24:33.429Z,2.30
2018-04-11T18:26:59.817Z,2.67
2018-04-11T18:29:27.478Z,4.23
2018-04-11T18:31:55.607Z,6.03
2018-04-11T18:34:23.091Z,4.30
2018-04-11T18:36:49.846Z,2.40
2018-04-11T18:39:16.819Z,3.10
2018-04-11T18:41:43.133Z,2.07
2018-04-11T18:44:09.634Z,2.23
2018-04-11T18:46:35.970Z,1.90
2018-04-11T18:49:03.362Z,2.20
2018-04-11T18:51:29.822Z,2.17
2018-04-11T18:53:56.832Z,5.53
2018-04-11T18:56:23.826Z,2.90
2018-04-11T18:58:50.104Z,3.40
2018-04-11T19:01:17.140Z,2.27
2018-04-11T19:03:43.467Z,2.73
2018-04-11T19:06:10.582Z,3.30
2018-04-11T19:08:37.147Z,2.30
2018-04-11T19:11:04.411Z,2.40
2018-04-11T19:13:31.279Z,2.03
2018-04-11T19:15:57.721Z,2.13
2018-04-11T19:18:25.907Z,2.50
2018-04-11T19:20:54.389Z,3.23
2018-04-11T19:23:22.032Z,1.97
2018-04-11T19:25:48.658Z,6.17
2018-04-11T19:28:15.453Z,2.00
2018-04-11T19:30:41.767Z,2.10
2018-04-11T19:33:08.453Z,1.80
2018-04-11T19:35:35.827Z,2.23
2018-04-11T19:38:02.943Z,2.40
2018-04-11T19:40:30.819Z,1.97
2018-04-11T19:42:57.875Z,2.83
2018-04-11T19:45:25.003Z,3.33
2018-04-11T19:47:51.978Z,2.30
2018-04-11T19:50:19.144Z,2.50
2018-04-11T19:52:48.074Z,4.60
2018-04-11T19:55:14.385Z,2.27
2018-04-11T19:57:41.105Z,3.00
2018-04-11T20:00:07.751Z,2.23
2018-04-11T20:02:34.803Z,2.40
2018-04-11T20:05:01.146Z,3.60
2018-04-11T20:07:27.685Z,2.73
2018-04-11T20:09:54.756Z,2.87
2018-04-11T20:12:21.731Z,3.07
2018-04-11T20:14:48.881Z,2.60
2018-04-11T20:17:16.338Z,2.77
2018-04-11T20:19:43.806Z,2.47
2018-04-11T20:22:10.112Z,2.20
2018-04-11T20:24:38.439Z,4.80
2018-04-11T20:27:05.943Z,3.07
2018-04-11T20:29:33.481Z,7.80
2018-04-11T20:31:59.698Z,3.10
2018-04-11T20:34:26.469Z,3.27
2018-04-11T20:36:54.358Z,2.80
2018-04-11T20:39:20.792Z,3.27
2018-04-11T20:41:47.035Z,3.63
2018-04-11T20:44:14.199Z,3.50
2018-04-11T20:46:40.465Z,2.87
2018-04-11T20:49:06.661Z,3.20
2018-04-11T20:51:32.849Z,2.80
2018-04-11T20:53:59.288Z,6.43
2018-04-11T20:56:25.923Z,2.90
2018-04-11T20:58:53.330Z,6.27
2018-04-11T21:01:21.457Z,4.30
2018-04-11T21:03:47.718Z,2.67
2018-04-11T21:06:14.110Z,4.33
2018-04-11T21:08:40.314Z,2.77
2018-04-11T21:11:07.264Z,3.10
2018-04-11T21:13:34.208Z,3.50
2018-04-11T21:16:02.269Z,2.40
2018-04-11T21:18:28.539Z,4.50
2018-04-11T21:20:55.862Z,3.50
2018-04-11T21:23:22.816Z,3.80
2018-04-11T21:25:49.587Z,4.00
2018-04-11T21:28:15.826Z,4.53
2018-04-11T21:30:43.798Z,3.47
2018-04-11T21:33:10.096Z,3.47
2018-04-11T21:35:36.640Z,3.00
2018-04-11T21:38:03.762Z,3.27
2018-04-11T21:40:30.233Z,5.50
2018-04-11T21:42:56.979Z,2.90
2018-04-11T21:45:23.509Z,7.53
2018-04-11T21:47:51.010Z,3.77
2018-04-11T21:50:18.139Z,9.43
2018-04-11T21:52:45.150Z,5.47
2018-04-11T21:55:11.949Z,3.03
2018-04-11T21:57:39.000Z,6.43
2018-04-11T22:00:06.638Z,3.77
2018-04-11T22:02:33.433Z,9.47
2018-04-11T22:05:00.606Z,10.33
2018-04-11T22:07:26.822Z,3.40
2018-04-11T22:09:54.860Z,4.07
2018-04-11T22:12:21.864Z,5.50
2018-04-11T22:14:48.252Z,6.30
2018-04-11T22:17:14.641Z,5.53
2018-04-11T22:19:40.903Z,4.40
2018-04-11T22:22:07.154Z,8.90
2018-04-11T22:24:34.011Z,5.33
2018-04-11T22:27:00.504Z,5.37
2018-04-11T22:29:27.029Z,6.10
2018-04-11T22:31:54.160Z,5.00
2018-04-11T22:34:21.258Z,9.83
2018-04-11T22:36:48.167Z,6.73
2018-04-11T22:39:16.183Z,13.80
2018-04-11T22:41:42.837Z,5.40
2018-04-11T22:44:10.538Z,8.80
2018-04-11T22:46:37.489Z,7.30
2018-04-11T22:49:04.601Z,7.03
2018-04-11T22:51:30.889Z,4.70
2018-04-11T22:53:57.303Z,4.20
2018-04-11T22:56:23.732Z,12.63
2018-04-11T22:58:50.670Z,7.90
2018-04-11T23:01:18.253Z,6.00
2018-04-11T23:03:44.592Z,6.23
2018-04-11T23:06:11.378Z,7.93
2018-04-11T23:08:39.131Z,6.03
2018-04-11T23:11:05.423Z,5.63
2018-04-11T23:13:31.664Z,7.43
2018-04-11T23:15:58.943Z,5.17
2018-04-11T23:18:25.577Z,4.60
2018-04-11T23:20:52.339Z,2.67
2018-04-11T23:23:19.706Z,9.67
2018-04-11T23:25:46.685Z,9.10
2018-04-11T23:28:12.908Z,10.77
2018-04-11T23:30:39.126Z,9.93
2018-04-11T23:33:06.270Z,6.37
2018-04-11T23:35:32.505Z,6.10
2018-04-11T23:37:59.649Z,7.87
2018-04-11T23:40:26.077Z,6.40
2018-04-11T23:42:53.144Z,9.90
2018-04-11T23:45:19.405Z,6.67
2018-04-11T23:47:46.718Z,2.90
2018-04-11T23:50:13.578Z,14.47
2018-04-11T23:52:40.428Z,11.87
2018-04-11T23:55:06.677Z,9.73
2018-04-11T23:57:33.778Z,5.27
